createdAt,value
2023-01-23T00:01:27.974Z,103485.16
2023-01-23T00:03:56.478Z,103486.81
2023-01-23T00:06:24.307Z,103491.75
2023-01-23T00:08:51.405Z,103488.78
2023-01-23T00:11:21.547Z,103500.78
2023-01-23T00:13:48.937Z,103491.19
2023-01-23T00:16:23.275Z,103488.16
2023-01-23T00:18:50.943Z,103497.78
2023-01-23T00:21:20.295Z,103492.06
2023-01-23T00:23:49.968Z,103493.28
2023-01-23T00:26:22.532Z,103498.06
2023-01-23T00:28:50.730Z,103495.69
2023-01-23T00:31:21.181Z,103496.28
2023-01-23T00:33:48.352Z,103492.06
2023-01-23T00:36:15.759Z,103489.50
2023-01-23T00:38:43.229Z,103497.47
2023-01-23T00:41:10.995Z,103484.28
2023-01-23T00:43:38.502Z,103491.31
2023-01-23T00:46:07.573Z,103488.91
2023-01-23T00:48:34.763Z,103479.44
2023-01-23T00:51:01.885Z,103490.25
2023-01-23T00:53:28.996Z,103478.56
2023-01-23T00:55:56.193Z,103480.34
2023-01-23T00:58:23.403Z,103481.13
2023-01-23T01:00:50.563Z,103478.56
2023-01-23T01:03:17.658Z,103478.09
2023-01-23T01:05:44.774Z,103476.91
2023-01-23T01:08:12.055Z,103460.25
2023-01-23T01:10:42.461Z,103457.53
2023-01-23T01:13:13.629Z,103469.84
2023-01-23T01:15:41.060Z,103473.16
2023-01-23T01:18:08.106Z,103452.56
2023-01-23T01:20:35.182Z,103467.91
2023-01-23T01:23:03.027Z,103469.53
2023-01-23T01:25:30.552Z,103473.75
2023-01-23T01:27:57.719Z,103457.50
2023-01-23T01:30:27.913Z,103469.25
2023-01-23T01:32:55.384Z,103476.13
2023-01-23T01:35:23.471Z,103482.28
2023-01-23T01:37:51.569Z,103483.47
2023-01-23T01:40:26.283Z,103483.94
2023-01-23T01:42:58.971Z,103480.31
2023-01-23T01:46:03.934Z,103480.66
2023-01-23T01:48:36.652Z,103470.13
2023-01-23T01:51:14.652Z,103477.19
2023-01-23T01:53:42.192Z,103469.53
2023-01-23T01:56:13.664Z,103484.81
2023-01-23T01:58:44.105Z,103470.72
2023-01-23T02:01:11.656Z,103475.81
2023-01-23T02:03:39.874Z,103481.22
2023-01-23T02:06:07.458Z,103481.81
2023-01-23T02:09:04.824Z,103484.69
2023-01-23T02:11:32.139Z,103482.72
2023-01-23T02:13:59.180Z,103481.22
2023-01-23T02:16:33.923Z,103474.34
2023-01-23T02:19:08.626Z,103487.56
2023-01-23T02:21:39.079Z,103486.63
2023-01-23T02:24:23.680Z,103491.72
2023-01-23T02:26:50.817Z,103495.03
2023-01-23T02:29:20.220Z,103484.53
2023-01-23T02:31:49.679Z,103492.81
2023-01-23T02:34:17.125Z,103495.34
2023-01-23T02:36:48.155Z,103483.75
2023-01-23T02:39:18.036Z,103503.16
2023-01-23T02:41:48.435Z,103485.75
2023-01-23T02:44:27.995Z,103496.97
2023-01-23T02:46:57.269Z,103494.59
2023-01-23T02:49:24.945Z,103494.28
2023-01-23T02:51:53.774Z,103518.03
2023-01-23T02:54:22.623Z,103518.16
2023-01-23T02:56:50.050Z,103516.69
2023-01-23T02:59:35.645Z,103501.34
2023-01-23T03:02:04.403Z,103514.88
2023-01-23T03:04:31.564Z,103522.06
2023-01-23T03:06:59.276Z,103510.06
2023-01-23T03:09:26.881Z,103516.22
2023-01-23T03:11:54.005Z,103515.91
2023-01-23T03:14:23.862Z,103531.38
2023-01-23T03:16:53.593Z,103522.25
2023-01-23T03:19:23.477Z,103519.69
2023-01-23T03:21:51.492Z,103523.28
2023-01-23T03:24:19.935Z,103513.69
2023-01-23T03:26:48.717Z,103516.38
2023-01-23T03:29:43.865Z,103520.44
2023-01-23T03:32:13.036Z,103514.13
2023-01-23T03:34:41.472Z,103521.31
2023-01-23T03:37:10.258Z,103518.78
2023-01-23T03:39:56.092Z,103516.22
2023-01-23T03:42:23.567Z,103513.06
2023-01-23T03:44:52.513Z,103517.75
2023-01-23T03:47:20.740Z,103507.50
2023-01-23T03:49:47.963Z,103510.69
2023-01-23T03:52:15.090Z,103504.97
2023-01-23T03:54:42.275Z,103516.69
2023-01-23T03:57:10.189Z,103523.00
2023-01-23T03:59:37.376Z,103520.91
2023-01-23T04:02:07.612Z,103522.69
2023-01-23T04:04:35.729Z,103519.97
2023-01-23T04:07:03.791Z,103524.19
2023-01-23T04:09:30.908Z,103520.91
2023-01-23T04:11:59.600Z,103517.44
2023-01-23T04:14:27.794Z,103522.38
2023-01-23T04:16:55.234Z,103520.59
2023-01-23T04:19:22.357Z,103530.50
2023-01-23T04:21:50.066Z,103528.09
2023-01-23T04:24:17.725Z,103519.53
2023-01-23T04:26:45.518Z,103534.09
2023-01-23T04:29:13.165Z,103543.72
2023-01-23T04:31:40.349Z,103540.25
2023-01-23T04:34:07.607Z,103545.22
2023-01-23T04:36:35.052Z,103528.84
2023-01-23T04:39:03.190Z,103535.91
2023-01-23T04:41:33.443Z,103543.13
2023-01-23T04:44:20.304Z,103526.63
2023-01-23T04:46:53.109Z,103532.31
2023-01-23T04:49:22.333Z,103529.91
2023-01-23T04:51:50.074Z,103539.06
2023-01-23T04:54:18.259Z,103535.75
2023-01-23T04:56:45.676Z,103529.44
2023-01-23T04:59:13.439Z,103534.72
2023-01-23T05:01:40.959Z,103533.66
2023-01-23T05:04:08.089Z,103528.41
2023-01-23T05:06:35.260Z,103538.63
2023-01-23T05:09:02.619Z,103543.72
2023-01-23T05:11:30.399Z,103542.22
2023-01-23T05:13:57.487Z,103539.78
2023-01-23T05:16:25.175Z,103553.94
2023-01-23T05:18:52.230Z,103547.31
2023-01-23T05:21:19.348Z,103554.22
2023-01-23T05:23:46.459Z,103550.59
2023-01-23T05:26:13.589Z,103552.41
2023-01-23T05:28:41.127Z,103557.50
2023-01-23T05:31:08.347Z,103553.59
2023-01-23T05:33:35.529Z,103565.91
2023-01-23T05:36:03.144Z,103559.16
2023-01-23T05:38:31.164Z,103559.91
2023-01-23T05:40:58.251Z,103555.41
2023-01-23T05:43:25.421Z,103566.81
2023-01-23T05:45:52.539Z,103544.88
2023-01-23T05:48:19.632Z,103562.94
2023-01-23T05:50:46.727Z,103565.50
2023-01-23T05:53:13.831Z,103562.19
2023-01-23T05:55:43.594Z,103559.31
2023-01-23T05:58:11.016Z,103562.94
2023-01-23T06:00:38.038Z,103560.25
2023-01-23T06:03:06.517Z,103553.94
2023-01-23T06:05:33.636Z,103559.03
2023-01-23T06:08:00.732Z,103563.22
2023-01-23T06:10:27.816Z,103549.69
2023-01-23T06:12:55.251Z,103553.28
2023-01-23T06:15:22.428Z,103564.69
2023-01-23T06:17:49.633Z,103551.06
2023-01-23T06:20:16.956Z,103549.25
2023-01-23T06:22:44.077Z,103548.19
2023-01-23T06:25:11.607Z,103571.00
2023-01-23T06:27:38.835Z,103574.34
2023-01-23T06:30:06.559Z,103581.06
2023-01-23T06:32:33.594Z,103579.44
2023-01-23T06:35:00.814Z,103583.47
2023-01-23T06:37:27.916Z,103585.09
2023-01-23T06:39:55.217Z,103597.59
2023-01-23T06:42:22.262Z,103599.38
2023-01-23T06:44:49.429Z,103603.44
2023-01-23T06:47:16.746Z,103605.38
2023-01-23T06:49:46.052Z,103613.50
2023-01-23T06:52:13.272Z,103614.84
2023-01-23T06:54:40.368Z,103615.59
2023-01-23T06:57:07.425Z,103604.94
2023-01-23T06:59:34.502Z,103609.59
2023-01-23T07:02:01.663Z,103599.84
2023-01-23T07:04:28.758Z,103593.53
2023-01-23T07:06:58.606Z,103599.84
2023-01-23T07:09:28.774Z,103600.13
2023-01-23T07:11:56.187Z,103598.31
2023-01-23T07:14:23.298Z,103599.84
2023-01-23T07:16:50.399Z,103595.78
2023-01-23T07:19:17.503Z,103583.91
2023-01-23T07:21:45.077Z,103592.34
2023-01-23T07:24:12.143Z,103585.75
2023-01-23T07:26:39.162Z,103588.13
2023-01-23T07:29:08.751Z,103597.72
2023-01-23T07:31:36.225Z,103604.50
2023-01-23T07:34:03.577Z,103607.94
2023-01-23T07:36:30.945Z,103608.53
2023-01-23T07:38:59.068Z,103599.84
2023-01-23T07:41:26.457Z,103605.25
2023-01-23T07:43:53.918Z,103619.19
2023-01-23T07:46:21.079Z,103612.00
2023-01-23T07:48:48.316Z,103618.59
2023-01-23T07:51:15.545Z,103632.13
2023-01-23T07:53:42.701Z,103617.13
2023-01-23T07:56:10.171Z,103618.59
2023-01-23T07:58:37.242Z,103632.56
2023-01-23T08:01:09.292Z,103632.13
2023-01-23T08:03:36.524Z,103641.09
2023-01-23T08:06:03.771Z,103658.28
2023-01-23T08:08:30.841Z,103650.88
2023-01-23T08:10:58.223Z,103654.78
2023-01-23T08:13:28.272Z,103654.78
2023-01-23T08:15:58.116Z,103648.81
2023-01-23T08:18:26.196Z,103647.31
2023-01-23T08:20:57.478Z,103653.94
2023-01-23T08:23:26.106Z,103644.91
2023-01-23T08:25:58.073Z,103649.75
2023-01-23T08:28:26.042Z,103649.16
2023-01-23T08:30:53.963Z,103664.94
2023-01-23T08:33:21.612Z,103662.78
2023-01-23T08:35:53.943Z,103654.84
2023-01-23T08:38:21.301Z,103659.34
2023-01-23T08:40:49.838Z,103655.47
2023-01-23T08:43:20.815Z,103659.22
2023-01-23T08:45:50.730Z,103661.91
2023-01-23T08:48:18.598Z,103657.88
2023-01-23T08:50:45.892Z,103659.50
2023-01-23T08:53:13.639Z,103660.72
2023-01-23T08:55:41.400Z,103644.06
2023-01-23T08:58:13.129Z,103665.09
2023-01-23T09:00:41.381Z,103672.00
2023-01-23T09:03:11.388Z,103676.97
2023-01-23T09:05:38.616Z,103692.28
2023-01-23T09:08:05.875Z,103697.13
2023-01-23T09:10:32.989Z,103689.78
2023-01-23T09:13:00.103Z,103690.66
2023-01-23T09:15:27.292Z,103694.88
2023-01-23T09:17:54.894Z,103685.41
2023-01-23T09:20:22.629Z,103691.59
2023-01-23T09:22:49.869Z,103691.88
2023-01-23T09:25:17.069Z,103702.28
2023-01-23T09:27:44.177Z,103694.47
2023-01-23T09:30:12.092Z,103693.25
2023-01-23T09:32:39.189Z,103696.28
2023-01-23T09:35:06.566Z,103692.84
2023-01-23T09:37:58.413Z,103685.75
2023-01-23T09:40:32.496Z,103704.25
2023-01-23T09:43:09.404Z,103702.59
2023-01-23T09:45:39.420Z,103709.78
2023-01-23T09:48:31.695Z,103709.66
2023-01-23T09:51:04.033Z,103706.50
2023-01-23T09:53:39.670Z,103708.91
2023-01-23T09:56:17.800Z,103706.97
2023-01-23T09:59:13.258Z,103716.72
2023-01-23T10:01:40.859Z,103708.94
2023-01-23T10:04:12.459Z,103725.59
2023-01-23T10:07:05.713Z,103724.13
2023-01-23T10:09:48.436Z,103720.66
2023-01-23T10:12:47.655Z,103718.38
2023-01-23T10:15:39.024Z,103718.69
2023-01-23T10:18:08.647Z,103713.09
2023-01-23T10:20:55.256Z,103710.28
2023-01-23T10:23:40.095Z,103711.47
2023-01-23T10:26:18.609Z,103707.41
2023-01-23T10:28:47.543Z,103706.50
2023-01-23T10:31:33.510Z,103708.44
2023-01-23T10:34:11.865Z,103693.88
2023-01-23T10:36:54.860Z,103696.88
2023-01-23T10:39:37.476Z,103692.84
2023-01-23T10:42:11.183Z,103701.41
2023-01-23T10:44:38.140Z,103698.53
2023-01-23T10:47:16.511Z,103700.03
2023-01-23T10:49:45.754Z,103697.47
2023-01-23T10:52:36.103Z,103709.38
2023-01-23T10:55:06.370Z,103717.34
2023-01-23T10:57:45.020Z,103714.47
2023-01-23T11:00:45.815Z,103719.13
2023-01-23T11:03:29.030Z,103719.91
2023-01-23T11:06:10.112Z,103713.25
2023-01-23T11:08:42.685Z,103716.13
2023-01-23T11:11:15.687Z,103717.00
2023-01-23T11:13:44.481Z,103723.75
2023-01-23T11:16:20.662Z,103715.34
2023-01-23T11:19:02.839Z,103712.16
2023-01-23T11:21:37.581Z,103705.06
2023-01-23T11:24:30.661Z,103709.13
2023-01-23T11:27:14.877Z,103700.06
2023-01-23T11:29:59.964Z,103703.22
2023-01-23T11:32:29.014Z,103690.00
2023-01-23T11:35:13.846Z,103701.69
2023-01-23T11:37:41.856Z,103707.09
2023-01-23T11:40:19.449Z,103701.69
2023-01-23T11:42:47.428Z,103710.56
2023-01-23T11:45:35.556Z,103709.47
2023-01-23T11:48:11.924Z,103711.84
2023-01-23T11:51:24.423Z,103707.91
2023-01-23T11:54:02.896Z,103703.22
2023-01-23T11:56:55.887Z,103707.41
2023-01-23T11:59:38.035Z,103707.84
2023-01-23T12:02:19.909Z,103700.16
2023-01-23T12:05:16.351Z,103703.41
2023-01-23T12:08:04.171Z,103694.53
2023-01-23T12:10:49.854Z,103702.53
2023-01-23T12:13:31.954Z,103694.97
2023-01-23T12:16:36.303Z,103701.44
2023-01-23T12:19:12.074Z,103695.25
2023-01-23T12:21:45.755Z,103697.34
2023-01-23T12:24:32.225Z,103704.06
2023-01-23T12:27:21.697Z,103689.53
2023-01-23T12:30:14.167Z,103689.09
2023-01-23T12:32:56.819Z,103692.09
2023-01-23T12:35:33.308Z,103705.06
2023-01-23T12:38:27.108Z,103701.09
2023-01-23T12:41:29.421Z,103695.22
2023-01-23T12:44:13.572Z,103699.34
2023-01-23T12:46:49.135Z,103699.16
2023-01-23T12:49:27.054Z,103698.53
2023-01-23T12:52:02.570Z,103707.41
2023-01-23T12:54:51.479Z,103701.41
2023-01-23T12:57:52.425Z,103699.72
2023-01-23T13:00:42.245Z,103708.75
2023-01-23T13:03:37.443Z,103707.84
2023-01-23T13:06:40.138Z,103710.81
2023-01-23T13:09:28.764Z,103706.94
2023-01-23T13:12:08.737Z,103708.47
2023-01-23T13:17:40.063Z,103705.06
2023-01-23T13:20:43.205Z,103712.47
2023-01-23T13:23:28.060Z,103709.63
2023-01-23T13:26:28.784Z,103712.75
2023-01-23T13:28:57.603Z,103715.78
2023-01-23T13:31:34.272Z,103708.88
2023-01-23T13:34:14.989Z,103710.13
2023-01-23T13:36:44.955Z,103726.81
2023-01-23T13:39:17.836Z,103721.88
2023-01-23T13:41:46.649Z,103722.00
2023-01-23T13:44:40.158Z,103728.94
2023-01-23T14:24:55.012Z,103654.44
2023-01-23T14:27:30.471Z,103653.69
2023-01-23T14:30:19.512Z,103656.25
2023-01-23T14:32:46.945Z,103653.69
2023-01-23T14:35:18.641Z,103653.41
2023-01-23T14:37:46.842Z,103643.22
2023-01-23T14:40:25.854Z,103649.53
2023-01-23T14:43:07.959Z,103648.59
2023-01-23T14:45:37.231Z,103662.94
2023-01-23T14:48:14.032Z,103664.88
2023-01-23T14:50:41.805Z,103672.75
2023-01-23T14:53:16.626Z,103675.63
2023-01-23T14:55:49.875Z,103680.88
2023-01-23T14:58:28.306Z,103682.13
2023-01-23T15:00:56.925Z,103676.09
2023-01-23T15:03:44.143Z,103672.75
2023-01-23T15:06:31.256Z,103676.88
2023-01-23T15:09:14.639Z,103671.56
2023-01-23T15:11:42.654Z,103674.75
2023-01-23T15:14:27.939Z,103683.00
2023-01-23T15:17:07.452Z,103690.53
2023-01-23T15:19:37.657Z,103695.53
2023-01-23T15:22:26.470Z,103690.41
2023-01-23T15:24:53.919Z,103686.97
2023-01-23T15:27:35.908Z,103709.06
2023-01-23T15:30:37.018Z,103712.38
2023-01-23T15:33:07.232Z,103705.28
2023-01-23T15:35:35.797Z,103687.97
2023-01-23T15:38:05.390Z,103688.78
2023-01-23T15:40:38.168Z,103697.16
2023-01-23T15:43:11.557Z,103694.47
2023-01-23T15:45:38.675Z,103698.84
2023-01-23T15:48:06.263Z,103698.09
2023-01-23T15:50:33.560Z,103701.25
2023-01-23T15:53:00.583Z,103693.41
2023-01-23T15:55:28.633Z,103687.28
2023-01-23T15:57:56.418Z,103681.53
2023-01-23T16:00:26.457Z,103693.28
2023-01-23T16:02:57.112Z,103694.78
2023-01-23T16:05:31.046Z,103696.59
2023-01-23T16:08:02.968Z,103694.78
2023-01-23T16:10:40.756Z,103696.31
2023-01-23T16:13:12.563Z,103691.53
2023-01-23T16:15:40.150Z,103690.94
2023-01-23T16:18:07.643Z,103696.47
2023-01-23T16:20:42.012Z,103690.94
2023-01-23T16:23:21.617Z,103686.88
2023-01-23T16:25:49.478Z,103696.97
2023-01-23T16:28:26.230Z,103700.28
2023-01-23T16:30:53.799Z,103704.38
2023-01-23T16:33:21.652Z,103712.94
2023-01-23T16:35:50.716Z,103699.59
2023-01-23T16:38:24.326Z,103722.75
2023-01-23T16:40:53.337Z,103716.44
2023-01-23T16:43:21.960Z,103723.22
2023-01-23T16:45:49.380Z,103712.41
2023-01-23T16:48:26.495Z,103727.41
2023-01-23T16:50:58.858Z,103729.06
2023-01-23T16:53:38.129Z,103734.47
2023-01-23T16:56:06.892Z,103731.16
2023-01-23T16:58:41.307Z,103736.59
2023-01-23T17:01:14.808Z,103738.53
2023-01-23T17:03:42.155Z,103734.34
2023-01-23T17:06:16.605Z,103737.94
2023-01-23T17:08:43.758Z,103713.25
2023-01-23T17:11:28.839Z,103737.63
2023-01-23T17:13:59.203Z,103745.16
2023-01-23T17:16:28.272Z,103727.56
2023-01-23T17:18:58.860Z,103742.88
2023-01-23T17:21:33.569Z,103735.81
2023-01-23T17:24:00.640Z,103736.44
2023-01-23T17:26:27.710Z,103737.78
2023-01-23T17:28:55.776Z,103747.25
2023-01-23T17:31:25.905Z,103735.22
2023-01-23T17:33:53.336Z,103748.44
2023-01-23T17:36:20.479Z,103744.09
2023-01-23T17:38:48.001Z,103748.31
2023-01-23T17:41:16.088Z,103744.69
2023-01-23T17:43:48.423Z,103758.69
2023-01-23T17:46:27.653Z,103755.06
2023-01-23T17:48:58.659Z,103760.50
2023-01-23T17:51:28.958Z,103758.69
2023-01-23T17:53:56.212Z,103759.59
2023-01-23T17:56:23.342Z,103774.03
2023-01-23T17:58:50.472Z,103761.09
2023-01-23T18:01:22.273Z,103767.28
2023-01-23T18:03:50.862Z,103768.78
2023-01-23T18:06:18.845Z,103771.31
2023-01-23T18:08:47.091Z,103768.91
2023-01-23T18:11:18.841Z,103772.97
2023-01-23T18:14:20.679Z,103768.03
2023-01-23T18:16:49.795Z,103769.53
2023-01-23T18:19:27.687Z,103763.19
2023-01-23T18:21:58.928Z,103768.94
2023-01-23T18:24:31.882Z,103776.13
2023-01-23T18:27:18.853Z,103773.56
2023-01-23T18:30:16.788Z,103767.25
2023-01-23T18:33:02.572Z,103773.13
2023-01-23T18:35:38.238Z,103768.47
2023-01-23T18:38:17.653Z,103776.44
2023-01-23T18:41:06.357Z,103778.06
2023-01-23T18:43:44.057Z,103783.50
2023-01-23T18:46:16.496Z,103772.06
2023-01-23T18:48:45.278Z,103774.94
2023-01-23T18:51:31.161Z,103774.19
2023-01-23T18:54:26.420Z,103769.22
2023-01-23T18:57:47.580Z,103773.41
2023-01-23T19:00:27.982Z,103781.88
2023-01-23T19:03:05.933Z,103766.38
2023-01-23T19:05:34.269Z,103776.59
2023-01-23T19:08:02.501Z,103776.44
2023-01-23T19:10:47.102Z,103770.41
2023-01-23T19:13:17.438Z,103780.50
2023-01-23T19:15:55.950Z,103779.00
2023-01-23T19:18:39.762Z,103781.56
2023-01-23T19:21:28.954Z,103776.13
2023-01-23T19:24:00.522Z,103783.19
2023-01-23T19:26:30.850Z,103771.31
2023-01-23T19:28:59.932Z,103769.53
2023-01-23T19:31:33.907Z,103782.31
2023-01-23T19:34:04.668Z,103784.88
2023-01-23T19:36:33.891Z,103778.69
2023-01-23T19:39:03.082Z,103786.34
2023-01-23T19:41:44.441Z,103795.09
2023-01-23T19:44:16.974Z,103784.88
2023-01-23T19:46:44.358Z,103787.09
2023-01-23T19:49:12.567Z,103789.22
2023-01-23T19:51:41.286Z,103796.28
2023-01-23T19:54:13.825Z,103794.34
2023-01-23T19:56:42.255Z,103803.81
2023-01-23T19:59:10.145Z,103805.31
2023-01-23T20:01:55.288Z,103804.44
2023-01-23T20:04:24.073Z,103799.59
2023-01-23T20:06:55.423Z,103798.84
2023-01-23T20:09:22.681Z,103808.75
2023-01-23T20:11:50.131Z,103811.66
2023-01-23T20:14:17.266Z,103810.28
2023-01-23T20:16:44.599Z,103813.00
2023-01-23T20:19:15.587Z,103814.34
2023-01-23T20:21:43.034Z,103807.41
2023-01-23T20:24:10.632Z,103817.03
2023-01-23T20:26:38.692Z,103819.59
2023-01-23T20:29:07.098Z,103814.34
2023-01-23T20:31:35.624Z,103823.97
2023-01-23T20:34:02.965Z,103817.97
2023-01-23T20:36:30.093Z,103825.47
2023-01-23T20:38:57.212Z,103824.72
2023-01-23T20:41:25.628Z,103816.16
2023-01-23T20:43:53.195Z,103816.16
2023-01-23T20:46:20.340Z,103817.66
2023-01-23T20:48:47.611Z,103829.81
2023-01-23T20:51:16.563Z,103824.72
2023-01-23T20:53:44.461Z,103820.34
2023-01-23T20:56:20.149Z,103820.34
2023-01-23T20:59:08.218Z,103811.31
2023-01-23T21:01:57.260Z,103817.34
2023-01-23T21:04:30.548Z,103816.28
2023-01-23T21:06:57.753Z,103823.97
2023-01-23T21:09:25.924Z,103805.16
2023-01-23T21:11:53.993Z,103812.69
2023-01-23T21:14:22.736Z,103816.16
2023-01-23T21:16:49.805Z,103823.97
2023-01-23T21:19:17.065Z,103822.16
2023-01-23T21:21:44.173Z,103812.25
2023-01-23T21:24:12.556Z,103824.56
2023-01-23T21:26:40.400Z,103824.88
2023-01-23T21:29:08.111Z,103825.47
2023-01-23T21:31:38.973Z,103826.38
2023-01-23T21:34:10.099Z,103833.31
2023-01-23T21:36:38.707Z,103829.81
2023-01-23T21:39:07.557Z,103820.06
2023-01-23T21:41:35.963Z,103818.25
2023-01-23T21:44:03.092Z,103806.50
2023-01-23T21:46:30.203Z,103823.50
2023-01-23T21:48:57.345Z,103820.34
2023-01-23T21:51:27.817Z,103815.69
2023-01-23T21:53:57.505Z,103797.94
2023-01-23T21:56:27.200Z,103814.03
2023-01-23T21:58:55.306Z,103816.44
2023-01-23T22:01:35.767Z,103817.66
2023-01-23T22:04:06.906Z,103825.91
2023-01-23T22:06:35.072Z,103829.22
2023-01-23T22:09:03.588Z,103830.16
2023-01-23T22:11:31.009Z,103827.41
2023-01-23T22:13:58.238Z,103832.53
2023-01-23T22:16:46.416Z,103831.50
2023-01-23T22:19:15.633Z,103826.06
2023-01-23T22:21:43.739Z,103830.56
2023-01-23T22:24:13.773Z,103824.88
2023-01-23T22:26:43.832Z,103833.75
2023-01-23T22:29:13.182Z,103836.44
2023-01-23T22:31:40.522Z,103830.84
2023-01-23T22:34:07.934Z,103834.47
2023-01-23T22:36:35.107Z,103840.53
2023-01-23T22:39:02.613Z,103830.13
2023-01-23T22:41:29.796Z,103843.22
2023-01-23T22:43:59.308Z,103838.38
2023-01-23T22:46:28.094Z,103839.59
2023-01-23T22:48:55.561Z,103836.72
2023-01-23T22:51:25.941Z,103845.44
2023-01-23T22:53:54.961Z,103834.94
2023-01-23T22:56:23.347Z,103836.91
2023-01-23T22:58:52.089Z,103838.53
2023-01-23T23:01:20.292Z,103815.25
2023-01-23T23:03:47.536Z,103834.16
2023-01-23T23:06:16.085Z,103834.75
2023-01-23T23:08:47.281Z,103825.59
2023-01-23T23:11:17.918Z,103829.38
2023-01-23T23:13:45.658Z,103838.25
2023-01-23T23:16:17.774Z,103837.19
2023-01-23T23:18:49.954Z,103838.84
2023-01-23T23:21:20.466Z,103840.34
2023-01-23T23:23:48.009Z,103834.16
2023-01-23T23:26:16.152Z,103827.41
2023-01-23T23:28:43.448Z,103844.84
2023-01-23T23:31:10.812Z,103840.81
2023-01-23T23:33:38.494Z,103842.28
2023-01-23T23:36:06.108Z,103837.50
2023-01-23T23:38:33.338Z,103837.31
2023-01-23T23:41:03.400Z,103839.59
2023-01-23T23:43:30.758Z,103844.84
2023-01-23T23:46:00.262Z,103842.28
2023-01-23T23:48:29.001Z,103836.72
2023-01-23T23:50:59.184Z,103827.84
2023-01-23T23:53:26.409Z,103837.50
2023-01-23T23:55:53.745Z,103825.75
2023-01-23T23:58:21.176Z,103822.44
